Terminal Aerodrome Forecast
Issued by NWS Wilmington, OH

Current Version | Previous Version | Graphics & Text | Print | Product List | Glossary On
Versions: 1 2 3 4 5 6 7 8 9 10 11 12 13 14 15 16 17
140
FTUS41 KILN 271120
TAFILN
TAF
KILN 271120Z 2712/2812 29006KT P6SM SKC
     FM271400 31008KT P6SM SCT040
     FM280300 VRB03KT P6SM FEW250=

USA.gov is the U.S. government's official web portal to all federal, state and local government web resources and services.